sensor_id;sensor_type;location;lat;lon;timestamp;P1;durP1;ratioP1;P2;durP2;ratioP2
2838;SDS011;1427;48.510;9.060;2024-01-11T00:01:51;45.17;;;2.97;;
2838;SDS011;1427;48.510;9.060;2024-01-11T00:04:19;44.10;;;1.70;;
2838;SDS011;1427;48.510;9.060;2024-01-11T00:06:47;44.97;;;2.20;;
2838;SDS011;1427;48.510;9.060;2024-01-11T00:09:17;45.10;;;3.70;;
2838;SDS011;1427;48.510;9.060;2024-01-11T00:11:46;44.83;;;2.40;;
2838;SDS011;1427;48.510;9.060;2024-01-11T00:14:14;44.67;;;1.90;;
2838;SDS011;1427;48.510;9.060;2024-01-11T00:16:42;46.43;;;4.10;;
2838;SDS011;1427;48.510;9.060;2024-01-11T00:19:10;44.87;;;2.07;;
2838;SDS011;1427;48.510;9.060;2024-01-11T00:21:39;45.03;;;2.20;;
2838;SDS011;1427;48.510;9.060;2024-01-11T00:24:07;44.00;;;1.60;;
2838;SDS011;1427;48.510;9.060;2024-01-11T00:26:35;44.20;;;1.87;;
2838;SDS011;1427;48.510;9.060;2024-01-11T00:29:05;44.30;;;1.90;;
2838;SDS011;1427;48.510;9.060;2024-01-11T00:31:33;44.20;;;1.70;;
2838;SDS011;1427;48.510;9.060;2024-01-11T00:34:01;44.30;;;1.90;;
2838;SDS011;1427;48.510;9.060;2024-01-11T00:36:29;44.30;;;1.70;;
2838;SDS011;1427;48.510;9.060;2024-01-11T00:38:59;44.20;;;1.60;;
2838;SDS011;1427;48.510;9.060;2024-01-11T00:41:27;44.60;;;1.90;;
2838;SDS011;1427;48.510;9.060;2024-01-11T00:43:55;44.30;;;1.73;;
2838;SDS011;1427;48.510;9.060;2024-01-11T00:46:25;44.97;;;2.00;;
2838;SDS011;1427;48.510;9.060;2024-01-11T00:48:53;44.67;;;1.80;;
2838;SDS011;1427;48.510;9.060;2024-01-11T00:51:22;44.87;;;1.97;;
2838;SDS011;1427;48.510;9.060;2024-01-11T00:53:50;46.53;;;4.73;;
2838;SDS011;1427;48.510;9.060;2024-01-11T00:56:18;44.40;;;1.80;;
2838;SDS011;1427;48.510;9.060;2024-01-11T00:58:49;44.90;;;1.90;;
2838;SDS011;1427;48.510;9.060;2024-01-11T01:01:17;44.27;;;1.83;;
2838;SDS011;1427;48.510;9.060;2024-01-11T01:03:46;44.50;;;1.80;;
2838;SDS011;1427;48.510;9.060;2024-01-11T01:06:15;129.50;;;14.83;;
2838;SDS011;1427;48.510;9.060;2024-01-11T01:08:43;44.67;;;2.27;;
2838;SDS011;1427;48.510;9.060;2024-01-11T01:11:11;44.37;;;2.20;;
2838;SDS011;1427;48.510;9.060;2024-01-11T01:13:39;44.47;;;1.80;;
2838;SDS011;1427;48.510;9.060;2024-01-11T01:16:07;45.50;;;3.40;;
2838;SDS011;1427;48.510;9.060;2024-01-11T01:18:35;44.90;;;2.03;;
2838;SDS011;1427;48.510;9.060;2024-01-11T01:21:05;45.80;;;4.17;;
2838;SDS011;1427;48.510;9.060;2024-01-11T01:23:34;44.50;;;1.50;;
2838;SDS011;1427;48.510;9.060;2024-01-11T01:26:02;44.73;;;1.80;;
2838;SDS011;1427;48.510;9.060;2024-01-11T01:28:33;44.83;;;1.97;;
2838;SDS011;1427;48.510;9.060;2024-01-11T01:31:01;45.00;;;1.97;;
2838;SDS011;1427;48.510;9.060;2024-01-11T01:33:29;44.47;;;1.70;;
2838;SDS011;1427;48.510;9.060;2024-01-11T01:35:57;44.30;;;1.87;;
2838;SDS011;1427;48.510;9.060;2024-01-11T01:38:26;44.20;;;1.50;;
2838;SDS011;1427;48.510;9.060;2024-01-11T01:40:57;44.57;;;1.80;;
2838;SDS011;1427;48.510;9.060;2024-01-11T01:43:25;44.67;;;2.07;;
2838;SDS011;1427;48.510;9.060;2024-01-11T01:45:53;58.93;;;5.57;;
2838;SDS011;1427;48.510;9.060;2024-01-11T01:48:21;44.73;;;1.70;;
2838;SDS011;1427;48.510;9.060;2024-01-11T01:50:50;45.40;;;3.60;;
2838;SDS011;1427;48.510;9.060;2024-01-11T01:53:18;44.90;;;1.90;;
2838;SDS011;1427;48.510;9.060;2024-01-11T01:55:50;44.57;;;1.63;;
2838;SDS011;1427;48.510;9.060;2024-01-11T01:58:20;44.67;;;2.00;;
2838;SDS011;1427;48.510;9.060;2024-01-11T02:00:49;44.10;;;1.90;;
2838;SDS011;1427;48.510;9.060;2024-01-11T02:03:18;45.13;;;2.77;;
2838;SDS011;1427;48.510;9.060;2024-01-11T02:05:46;44.10;;;1.70;;
2838;SDS011;1427;48.510;9.060;2024-01-11T02:08:15;44.77;;;2.03;;
2838;SDS011;1427;48.510;9.060;2024-01-11T02:10:44;44.73;;;1.67;;
2838;SDS011;1427;48.510;9.060;2024-01-11T02:13:14;44.47;;;1.70;;
2838;SDS011;1427;48.510;9.060;2024-01-11T02:15:43;44.97;;;1.90;;
2838;SDS011;1427;48.510;9.060;2024-01-11T02:18:12;44.30;;;1.60;;
2838;SDS011;1427;48.510;9.060;2024-01-11T02:20:40;44.60;;;1.83;;
2838;SDS011;1427;48.510;9.060;2024-01-11T02:23:11;44.60;;;1.87;;
2838;SDS011;1427;48.510;9.060;2024-01-11T02:25:45;44.73;;;1.90;;
2838;SDS011;1427;48.510;9.060;2024-01-11T02:28:13;45.00;;;2.27;;
2838;SDS011;1427;48.510;9.060;2024-01-11T02:30:41;44.40;;;1.90;;
2838;SDS011;1427;48.510;9.060;2024-01-11T02:33:10;44.87;;;2.10;;
2838;SDS011;1427;48.510;9.060;2024-01-11T02:35:42;44.60;;;1.70;;
2838;SDS011;1427;48.510;9.060;2024-01-11T02:38:13;44.60;;;1.70;;
2838;SDS011;1427;48.510;9.060;2024-01-11T02:40:41;44.73;;;1.80;;
2838;SDS011;1427;48.510;9.060;2024-01-11T02:43:11;44.83;;;2.13;;
2838;SDS011;1427;48.510;9.060;2024-01-11T02:45:40;44.23;;;1.90;;
2838;SDS011;1427;48.510;9.060;2024-01-11T02:48:07;44.80;;;1.70;;
2838;SDS011;1427;48.510;9.060;2024-01-11T02:50:36;44.87;;;2.43;;
2838;SDS011;1427;48.510;9.060;2024-01-11T02:53:04;44.57;;;1.90;;
2838;SDS011;1427;48.510;9.060;2024-01-11T02:55:32;44.70;;;1.80;;
2838;SDS011;1427;48.510;9.060;2024-01-11T02:58:00;44.43;;;1.93;;
2838;SDS011;1427;48.510;9.060;2024-01-11T03:00:29;44.67;;;1.60;;
2838;SDS011;1427;48.510;9.060;2024-01-11T03:02:57;44.63;;;1.90;;
2838;SDS011;1427;48.510;9.060;2024-01-11T03:05:25;44.47;;;1.70;;
2838;SDS011;1427;48.510;9.060;2024-01-11T03:07:53;45.53;;;2.90;;
2838;SDS011;1427;48.510;9.060;2024-01-11T03:10:21;44.37;;;1.93;;
2838;SDS011;1427;48.510;9.060;2024-01-11T03:12:50;55.90;;;11.30;;
2838;SDS011;1427;48.510;9.060;2024-01-11T03:15:18;44.17;;;1.90;;
2838;SDS011;1427;48.510;9.060;2024-01-11T03:17:47;45.40;;;3.50;;
2838;SDS011;1427;48.510;9.060;2024-01-11T03:20:15;45.70;;;4.53;;
2838;SDS011;1427;48.510;9.060;2024-01-11T03:22:46;44.57;;;1.67;;
2838;SDS011;1427;48.510;9.060;2024-01-11T03:25:14;46.57;;;6.43;;
2838;SDS011;1427;48.510;9.060;2024-01-11T03:27:42;44.30;;;2.00;;
2838;SDS011;1427;48.510;9.060;2024-01-11T03:30:10;44.30;;;1.63;;
2838;SDS011;1427;48.510;9.060;2024-01-11T03:32:39;45.50;;;3.70;;
2838;SDS011;1427;48.510;9.060;2024-01-11T03:35:08;44.40;;;2.03;;
2838;SDS011;1427;48.510;9.060;2024-01-11T03:37:36;44.37;;;1.60;;
2838;SDS011;1427;48.510;9.060;2024-01-11T03:40:05;44.50;;;2.00;;
2838;SDS011;1427;48.510;9.060;2024-01-11T03:42:33;44.70;;;1.70;;
2838;SDS011;1427;48.510;9.060;2024-01-11T03:45:01;43.87;;;1.60;;
2838;SDS011;1427;48.510;9.060;2024-01-11T03:47:30;44.43;;;1.80;;
2838;SDS011;1427;48.510;9.060;2024-01-11T03:49:58;44.40;;;2.47;;
2838;SDS011;1427;48.510;9.060;2024-01-11T03:52:28;45.40;;;3.57;;
2838;SDS011;1427;48.510;9.060;2024-01-11T03:54:56;44.67;;;1.80;;
2838;SDS011;1427;48.510;9.060;2024-01-11T03:57:23;44.40;;;1.73;;
2838;SDS011;1427;48.510;9.060;2024-01-11T03:59:52;44.30;;;1.60;;
2838;SDS011;1427;48.510;9.060;2024-01-11T04:02:20;44.93;;;2.13;;
2838;SDS011;1427;48.510;9.060;2024-01-11T04:04:48;44.67;;;1.90;;
2838;SDS011;1427;48.510;9.060;2024-01-11T04:07:16;44.20;;;1.60;;
2838;SDS011;1427;48.510;9.060;2024-01-11T04:09:45;44.10;;;1.83;;
2838;SDS011;1427;48.510;9.060;2024-01-11T04:12:13;44.50;;;1.90;;
2838;SDS011;1427;48.510;9.060;2024-01-11T04:14:41;44.60;;;1.70;;
2838;SDS011;1427;48.510;9.060;2024-01-11T04:17:09;44.30;;;1.90;;
2838;SDS011;1427;48.510;9.060;2024-01-11T04:19:38;44.50;;;2.10;;
2838;SDS011;1427;48.510;9.060;2024-01-11T04:22:06;44.07;;;2.17;;
2838;SDS011;1427;48.510;9.060;2024-01-11T04:24:35;44.60;;;1.80;;
2838;SDS011;1427;48.510;9.060;2024-01-11T04:27:05;44.50;;;1.63;;
2838;SDS011;1427;48.510;9.060;2024-01-11T04:29:33;44.37;;;2.27;;
2838;SDS011;1427;48.510;9.060;2024-01-11T04:32:00;44.63;;;1.77;;
2838;SDS011;1427;48.510;9.060;2024-01-11T04:34:29;44.47;;;1.70;;
2838;SDS011;1427;48.510;9.060;2024-01-11T04:36:57;44.73;;;1.77;;
2838;SDS011;1427;48.510;9.060;2024-01-11T04:39:25;44.37;;;2.20;;
2838;SDS011;1427;48.510;9.060;2024-01-11T04:41:53;44.10;;;1.60;;
2838;SDS011;1427;48.510;9.060;2024-01-11T04:44:23;44.40;;;1.80;;
2838;SDS011;1427;48.510;9.060;2024-01-11T04:46:53;44.83;;;1.97;;
2838;SDS011;1427;48.510;9.060;2024-01-11T04:49:21;44.20;;;1.80;;
2838;SDS011;1427;48.510;9.060;2024-01-11T04:51:49;44.10;;;1.60;;
2838;SDS011;1427;48.510;9.060;2024-01-11T04:54:17;44.33;;;2.13;;
2838;SDS011;1427;48.510;9.060;2024-01-11T04:56:45;45.00;;;3.17;;
2838;SDS011;1427;48.510;9.060;2024-01-11T04:59:13;44.30;;;1.77;;
2838;SDS011;1427;48.510;9.060;2024-01-11T05:01:42;44.43;;;1.70;;
2838;SDS011;1427;48.510;9.060;2024-01-11T05:04:10;44.23;;;1.70;;
2838;SDS011;1427;48.510;9.060;2024-01-11T05:06:38;44.77;;;1.90;;
2838;SDS011;1427;48.510;9.060;2024-01-11T05:09:06;44.50;;;2.03;;
2838;SDS011;1427;48.510;9.060;2024-01-11T05:11:34;44.47;;;1.70;;
2838;SDS011;1427;48.510;9.060;2024-01-11T05:14:03;44.60;;;2.13;;
2838;SDS011;1427;48.510;9.060;2024-01-11T05:16:31;44.73;;;2.30;;
2838;SDS011;1427;48.510;9.060;2024-01-11T05:19:03;74.00;;;19.83;;
2838;SDS011;1427;48.510;9.060;2024-01-11T05:21:31;44.63;;;1.87;;
2838;SDS011;1427;48.510;9.060;2024-01-11T05:23:59;44.80;;;1.90;;
2838;SDS011;1427;48.510;9.060;2024-01-11T05:26:27;44.47;;;1.77;;
2838;SDS011;1427;48.510;9.060;2024-01-11T05:28:55;52.60;;;13.93;;
2838;SDS011;1427;48.510;9.060;2024-01-11T05:31:23;44.27;;;1.60;;
2838;SDS011;1427;48.510;9.060;2024-01-11T05:33:51;44.77;;;2.37;;
2838;SDS011;1427;48.510;9.060;2024-01-11T05:36:21;44.63;;;1.97;;
2838;SDS011;1427;48.510;9.060;2024-01-11T05:38:49;44.60;;;1.73;;
2838;SDS011;1427;48.510;9.060;2024-01-11T05:41:17;44.53;;;1.60;;
2838;SDS011;1427;48.510;9.060;2024-01-11T05:43:45;53.47;;;6.27;;
2838;SDS011;1427;48.510;9.060;2024-01-11T05:46:14;44.77;;;2.20;;
2838;SDS011;1427;48.510;9.060;2024-01-11T05:48:42;44.10;;;1.60;;
2838;SDS011;1427;48.510;9.060;2024-01-11T05:51:10;44.70;;;1.90;;
2838;SDS011;1427;48.510;9.060;2024-01-11T05:53:40;44.47;;;1.60;;
2838;SDS011;1427;48.510;9.060;2024-01-11T05:56:08;44.30;;;1.53;;
2838;SDS011;1427;48.510;9.060;2024-01-11T05:58:37;44.93;;;2.97;;
2838;SDS011;1427;48.510;9.060;2024-01-11T06:01:05;44.60;;;1.80;;
2838;SDS011;1427;48.510;9.060;2024-01-11T06:03:33;44.40;;;1.60;;
2838;SDS011;1427;48.510;9.060;2024-01-11T06:06:02;44.63;;;1.80;;
2838;SDS011;1427;48.510;9.060;2024-01-11T06:08:30;44.57;;;1.80;;
2838;SDS011;1427;48.510;9.060;2024-01-11T06:11:00;44.50;;;1.70;;
2838;SDS011;1427;48.510;9.060;2024-01-11T06:13:28;44.67;;;1.90;;
2838;SDS011;1427;48.510;9.060;2024-01-11T06:15:56;44.87;;;2.20;;
2838;SDS011;1427;48.510;9.060;2024-01-11T06:18:24;44.50;;;1.67;;
2838;SDS011;1427;48.510;9.060;2024-01-11T06:20:52;44.00;;;1.80;;
2838;SDS011;1427;48.510;9.060;2024-01-11T06:23:20;44.57;;;1.80;;
2838;SDS011;1427;48.510;9.060;2024-01-11T06:25:50;44.47;;;1.60;;
2838;SDS011;1427;48.510;9.060;2024-01-11T06:28:20;44.50;;;1.80;;
2838;SDS011;1427;48.510;9.060;2024-01-11T06:30:48;44.60;;;1.97;;
2838;SDS011;1427;48.510;9.060;2024-01-11T06:33:16;45.80;;;5.00;;
2838;SDS011;1427;48.510;9.060;2024-01-11T06:35:44;44.63;;;1.90;;
2838;SDS011;1427;48.510;9.060;2024-01-11T06:38:12;44.40;;;1.70;;
2838;SDS011;1427;48.510;9.060;2024-01-11T06:40:40;44.60;;;1.90;;
2838;SDS011;1427;48.510;9.060;2024-01-11T06:43:09;44.50;;;1.90;;
2838;SDS011;1427;48.510;9.060;2024-01-11T06:45:39;44.40;;;1.70;;
2838;SDS011;1427;48.510;9.060;2024-01-11T06:48:07;44.37;;;1.70;;
2838;SDS011;1427;48.510;9.060;2024-01-11T06:50:35;45.60;;;4.50;;
2838;SDS011;1427;48.510;9.060;2024-01-11T06:53:03;44.40;;;1.60;;
2838;SDS011;1427;48.510;9.060;2024-01-11T06:55:31;44.60;;;1.80;;
2838;SDS011;1427;48.510;9.060;2024-01-11T06:58:00;44.17;;;1.80;;
2838;SDS011;1427;48.510;9.060;2024-01-11T07:00:28;44.53;;;1.90;;
2838;SDS011;1427;48.510;9.060;2024-01-11T07:02:58;44.50;;;1.70;;
2838;SDS011;1427;48.510;9.060;2024-01-11T07:05:26;44.40;;;1.90;;
2838;SDS011;1427;48.510;9.060;2024-01-11T07:07:55;44.30;;;1.50;;
2838;SDS011;1427;48.510;9.060;2024-01-11T07:10:23;44.47;;;1.80;;
2838;SDS011;1427;48.510;9.060;2024-01-11T07:12:51;44.00;;;1.83;;
2838;SDS011;1427;48.510;9.060;2024-01-11T07:15:19;44.40;;;1.70;;
2838;SDS011;1427;48.510;9.060;2024-01-11T07:17:47;44.90;;;2.47;;
2838;SDS011;1427;48.510;9.060;2024-01-11T07:20:17;59.03;;;15.93;;
2838;SDS011;1427;48.510;9.060;2024-01-11T07:22:45;46.47;;;5.50;;
2838;SDS011;1427;48.510;9.060;2024-01-11T07:25:13;45.80;;;4.30;;
2838;SDS011;1427;48.510;9.060;2024-01-11T07:27:42;46.10;;;4.63;;
2838;SDS011;1427;48.510;9.060;2024-01-11T07:30:10;45.87;;;4.00;;
2838;SDS011;1427;48.510;9.060;2024-01-11T07:32:39;46.47;;;6.30;;
2838;SDS011;1427;48.510;9.060;2024-01-11T07:35:07;46.33;;;6.47;;
2838;SDS011;1427;48.510;9.060;2024-01-11T07:37:42;45.60;;;4.10;;
2838;SDS011;1427;48.510;9.060;2024-01-11T07:40:11;46.27;;;5.53;;
2838;SDS011;1427;48.510;9.060;2024-01-11T07:42:40;45.87;;;4.27;;
2838;SDS011;1427;48.510;9.060;2024-01-11T07:45:08;46.00;;;4.40;;
2838;SDS011;1427;48.510;9.060;2024-01-11T07:47:37;45.80;;;3.90;;
2838;SDS011;1427;48.510;9.060;2024-01-11T07:50:05;46.07;;;4.50;;
2838;SDS011;1427;48.510;9.060;2024-01-11T07:52:36;45.87;;;4.53;;
2838;SDS011;1427;48.510;9.060;2024-01-11T07:55:06;45.17;;;3.27;;
2838;SDS011;1427;48.510;9.060;2024-01-11T07:57:34;46.20;;;5.07;;
2838;SDS011;1427;48.510;9.060;2024-01-11T08:00:03;45.80;;;4.10;;
2838;SDS011;1427;48.510;9.060;2024-01-11T08:02:33;45.57;;;4.00;;
2838;SDS011;1427;48.510;9.060;2024-01-11T08:05:01;45.37;;;3.87;;
2838;SDS011;1427;48.510;9.060;2024-01-11T08:07:29;45.70;;;4.40;;
2838;SDS011;1427;48.510;9.060;2024-01-11T08:09:57;45.50;;;3.70;;
2838;SDS011;1427;48.510;9.060;2024-01-11T08:12:27;47.27;;;6.97;;
2838;SDS011;1427;48.510;9.060;2024-01-11T08:14:55;45.50;;;4.10;;
2838;SDS011;1427;48.510;9.060;2024-01-11T08:17:23;45.87;;;4.50;;
2838;SDS011;1427;48.510;9.060;2024-01-11T08:19:51;45.87;;;3.97;;
2838;SDS011;1427;48.510;9.060;2024-01-11T08:22:19;45.40;;;3.50;;
2838;SDS011;1427;48.510;9.060;2024-01-11T08:24:53;45.70;;;4.33;;
2838;SDS011;1427;48.510;9.060;2024-01-11T08:27:22;45.73;;;4.13;;
2838;SDS011;1427;48.510;9.060;2024-01-11T08:29:51;45.70;;;3.97;;
2838;SDS011;1427;48.510;9.060;2024-01-11T08:32:19;45.67;;;4.53;;
2838;SDS011;1427;48.510;9.060;2024-01-11T08:34:57;46.00;;;4.40;;
2838;SDS011;1427;48.510;9.060;2024-01-11T08:37:25;45.87;;;4.27;;
2838;SDS011;1427;48.510;9.060;2024-01-11T08:39:53;45.90;;;4.80;;
2838;SDS011;1427;48.510;9.060;2024-01-11T08:42:21;47.10;;;5.17;;
2838;SDS011;1427;48.510;9.060;2024-01-11T08:44:49;46.00;;;5.63;;
2838;SDS011;1427;48.510;9.060;2024-01-11T08:47:19;45.60;;;3.90;;
2838;SDS011;1427;48.510;9.060;2024-01-11T08:49:47;45.60;;;4.23;;
2838;SDS011;1427;48.510;9.060;2024-01-11T08:52:15;45.40;;;3.83;;
2838;SDS011;1427;48.510;9.060;2024-01-11T08:54:43;45.83;;;4.60;;
2838;SDS011;1427;48.510;9.060;2024-01-11T08:57:11;45.97;;;4.73;;
2838;SDS011;1427;48.510;9.060;2024-01-11T08:59:39;45.27;;;3.70;;
2838;SDS011;1427;48.510;9.060;2024-01-11T09:02:09;45.37;;;4.10;;
2838;SDS011;1427;48.510;9.060;2024-01-11T09:04:44;45.57;;;4.07;;
2838;SDS011;1427;48.510;9.060;2024-01-11T09:07:13;45.37;;;4.03;;
2838;SDS011;1427;48.510;9.060;2024-01-11T09:09:42;45.37;;;4.20;;
2838;SDS011;1427;48.510;9.060;2024-01-11T09:12:21;45.73;;;4.07;;
2838;SDS011;1427;48.510;9.060;2024-01-11T09:14:49;45.67;;;4.50;;
2838;SDS011;1427;48.510;9.060;2024-01-11T09:17:19;45.30;;;3.90;;
2838;SDS011;1427;48.510;9.060;2024-01-11T09:19:48;45.73;;;4.20;;
2838;SDS011;1427;48.510;9.060;2024-01-11T09:22:17;46.17;;;4.60;;
2838;SDS011;1427;48.510;9.060;2024-01-11T09:24:45;45.67;;;3.70;;
2838;SDS011;1427;48.510;9.060;2024-01-11T09:27:13;45.23;;;4.37;;
2838;SDS011;1427;48.510;9.060;2024-01-11T09:29:44;45.30;;;3.70;;
2838;SDS011;1427;48.510;9.060;2024-01-11T09:32:12;46.00;;;4.43;;
2838;SDS011;1427;48.510;9.060;2024-01-11T09:34:42;45.60;;;4.13;;
2838;SDS011;1427;48.510;9.060;2024-01-11T09:37:12;45.80;;;5.20;;
2838;SDS011;1427;48.510;9.060;2024-01-11T09:39:40;46.43;;;5.87;;
2838;SDS011;1427;48.510;9.060;2024-01-11T09:42:09;47.80;;;7.20;;
2838;SDS011;1427;48.510;9.060;2024-01-11T09:44:37;45.43;;;4.00;;
2838;SDS011;1427;48.510;9.060;2024-01-11T09:47:07;45.50;;;3.90;;
2838;SDS011;1427;48.510;9.060;2024-01-11T09:49:43;45.13;;;3.27;;
2838;SDS011;1427;48.510;9.060;2024-01-11T09:52:12;46.00;;;4.70;;
2838;SDS011;1427;48.510;9.060;2024-01-11T09:54:43;46.20;;;5.57;;
2838;SDS011;1427;48.510;9.060;2024-01-11T09:57:11;45.93;;;4.83;;
2838;SDS011;1427;48.510;9.060;2024-01-11T09:59:40;45.87;;;4.43;;
2838;SDS011;1427;48.510;9.060;2024-01-11T10:02:10;45.97;;;4.23;;
2838;SDS011;1427;48.510;9.060;2024-01-11T10:04:40;46.07;;;5.00;;
2838;SDS011;1427;48.510;9.060;2024-01-11T10:07:11;45.33;;;3.97;;
2838;SDS011;1427;48.510;9.060;2024-01-11T10:09:41;46.00;;;4.60;;
2838;SDS011;1427;48.510;9.060;2024-01-11T10:12:09;47.87;;;5.30;;
2838;SDS011;1427;48.510;9.060;2024-01-11T10:14:38;45.97;;;4.83;;
2838;SDS011;1427;48.510;9.060;2024-01-11T10:17:06;49.20;;;6.43;;
2838;SDS011;1427;48.510;9.060;2024-01-11T10:19:38;46.30;;;4.70;;
2838;SDS011;1427;48.510;9.060;2024-01-11T10:22:10;45.77;;;3.90;;
2838;SDS011;1427;48.510;9.060;2024-01-11T10:24:39;71.20;;;11.83;;
2838;SDS011;1427;48.510;9.060;2024-01-11T10:27:08;49.63;;;8.47;;
2838;SDS011;1427;48.510;9.060;2024-01-11T10:29:37;50.60;;;7.57;;
2838;SDS011;1427;48.510;9.060;2024-01-11T10:32:05;62.70;;;8.13;;
2838;SDS011;1427;48.510;9.060;2024-01-11T10:34:34;52.63;;;7.73;;
2838;SDS011;1427;48.510;9.060;2024-01-11T10:37:03;47.33;;;5.63;;
2838;SDS011;1427;48.510;9.060;2024-01-11T10:39:33;46.50;;;5.00;;
2838;SDS011;1427;48.510;9.060;2024-01-11T10:42:04;51.20;;;7.23;;
2838;SDS011;1427;48.510;9.060;2024-01-11T10:44:34;47.10;;;4.73;;
2838;SDS011;1427;48.510;9.060;2024-01-11T10:47:03;46.80;;;5.10;;
2838;SDS011;1427;48.510;9.060;2024-01-11T10:49:35;49.53;;;6.23;;
2838;SDS011;1427;48.510;9.060;2024-01-11T10:52:08;49.30;;;5.73;;
2838;SDS011;1427;48.510;9.060;2024-01-11T10:54:39;47.00;;;5.40;;
2838;SDS011;1427;48.510;9.060;2024-01-11T10:57:09;51.40;;;7.80;;
2838;SDS011;1427;48.510;9.060;2024-01-11T10:59:40;72.17;;;15.13;;
2838;SDS011;1427;48.510;9.060;2024-01-11T11:02:10;61.87;;;10.27;;
2838;SDS011;1427;48.510;9.060;2024-01-11T11:04:41;60.60;;;11.13;;
2838;SDS011;1427;48.510;9.060;2024-01-11T11:07:10;66.33;;;9.60;;
2838;SDS011;1427;48.510;9.060;2024-01-11T11:09:41;57.40;;;10.00;;
2838;SDS011;1427;48.510;9.060;2024-01-11T11:12:12;67.37;;;9.43;;
2838;SDS011;1427;48.510;9.060;2024-01-11T11:14:41;62.83;;;9.97;;
2838;SDS011;1427;48.510;9.060;2024-01-11T11:17:11;59.57;;;10.53;;
2838;SDS011;1427;48.510;9.060;2024-01-11T11:19:41;56.33;;;7.27;;
2838;SDS011;1427;48.510;9.060;2024-01-11T11:22:10;59.43;;;9.67;;
2838;SDS011;1427;48.510;9.060;2024-01-11T11:24:43;55.47;;;9.70;;
2838;SDS011;1427;48.510;9.060;2024-01-11T11:27:12;77.87;;;13.20;;
2838;SDS011;1427;48.510;9.060;2024-01-11T11:29:41;65.60;;;10.37;;
2838;SDS011;1427;48.510;9.060;2024-01-11T11:32:14;68.03;;;9.50;;
2838;SDS011;1427;48.510;9.060;2024-01-11T11:34:43;54.07;;;9.73;;
2838;SDS011;1427;48.510;9.060;2024-01-11T11:37:12;55.90;;;9.60;;
2838;SDS011;1427;48.510;9.060;2024-01-11T11:39:42;58.10;;;8.87;;
2838;SDS011;1427;48.510;9.060;2024-01-11T11:42:10;56.70;;;9.60;;
2838;SDS011;1427;48.510;9.060;2024-01-11T11:44:47;61.13;;;8.03;;
2838;SDS011;1427;48.510;9.060;2024-01-11T11:47:18;75.47;;;11.90;;
2838;SDS011;1427;48.510;9.060;2024-01-11T11:49:57;55.70;;;9.40;;
2838;SDS011;1427;48.510;9.060;2024-01-11T11:52:26;65.43;;;9.87;;
2838;SDS011;1427;48.510;9.060;2024-01-11T11:54:57;65.60;;;11.93;;
2838;SDS011;1427;48.510;9.060;2024-01-11T11:57:26;58.60;;;9.80;;
2838;SDS011;1427;48.510;9.060;2024-01-11T11:59:55;57.83;;;11.07;;
2838;SDS011;1427;48.510;9.060;2024-01-11T12:02:25;65.93;;;12.77;;
2838;SDS011;1427;48.510;9.060;2024-01-11T12:04:53;56.90;;;9.87;;
2838;SDS011;1427;48.510;9.060;2024-01-11T12:07:23;59.27;;;10.17;;
2838;SDS011;1427;48.510;9.060;2024-01-11T12:09:51;58.87;;;9.70;;
2838;SDS011;1427;48.510;9.060;2024-01-11T12:12:21;71.50;;;11.57;;
2838;SDS011;1427;48.510;9.060;2024-01-11T12:14:50;61.23;;;12.87;;
2838;SDS011;1427;48.510;9.060;2024-01-11T12:17:19;61.10;;;10.50;;
2838;SDS011;1427;48.510;9.060;2024-01-11T12:19:48;81.80;;;14.73;;
2838;SDS011;1427;48.510;9.060;2024-01-11T12:22:17;69.47;;;12.87;;
2838;SDS011;1427;48.510;9.060;2024-01-11T12:24:45;61.27;;;11.33;;
2838;SDS011;1427;48.510;9.060;2024-01-11T12:27:14;65.93;;;12.93;;
2838;SDS011;1427;48.510;9.060;2024-01-11T12:29:43;60.63;;;10.63;;
2838;SDS011;1427;48.510;9.060;2024-01-11T12:32:23;65.53;;;15.50;;
2838;SDS011;1427;48.510;9.060;2024-01-11T12:34:52;75.30;;;12.73;;
2838;SDS011;1427;48.510;9.060;2024-01-11T12:37:20;61.10;;;9.57;;
2838;SDS011;1427;48.510;9.060;2024-01-11T12:39:48;67.37;;;12.60;;
2838;SDS011;1427;48.510;9.060;2024-01-11T12:42:16;80.20;;;12.07;;
2838;SDS011;1427;48.510;9.060;2024-01-11T12:44:46;60.53;;;10.37;;
2838;SDS011;1427;48.510;9.060;2024-01-11T12:47:19;68.47;;;13.00;;
2838;SDS011;1427;48.510;9.060;2024-01-11T12:49:47;70.63;;;15.17;;
2838;SDS011;1427;48.510;9.060;2024-01-11T12:52:18;66.93;;;9.70;;
2838;SDS011;1427;48.510;9.060;2024-01-11T12:54:46;60.97;;;9.27;;
2838;SDS011;1427;48.510;9.060;2024-01-11T12:57:19;60.50;;;10.30;;
2838;SDS011;1427;48.510;9.060;2024-01-11T12:59:48;64.77;;;11.30;;
2838;SDS011;1427;48.510;9.060;2024-01-11T13:02:17;56.60;;;10.40;;
2838;SDS011;1427;48.510;9.060;2024-01-11T13:04:46;71.20;;;13.03;;
2838;SDS011;1427;48.510;9.060;2024-01-11T13:07:14;71.43;;;14.07;;
2838;SDS011;1427;48.510;9.060;2024-01-11T13:09:42;68.87;;;12.50;;
2838;SDS011;1427;48.510;9.060;2024-01-11T13:12:11;66.63;;;12.67;;
2838;SDS011;1427;48.510;9.060;2024-01-11T13:14:39;69.90;;;13.33;;
2838;SDS011;1427;48.510;9.060;2024-01-11T13:17:08;69.73;;;16.97;;
2838;SDS011;1427;48.510;9.060;2024-01-11T13:19:37;68.57;;;13.90;;
2838;SDS011;1427;48.510;9.060;2024-01-11T13:22:05;65.47;;;13.37;;
2838;SDS011;1427;48.510;9.060;2024-01-11T13:24:33;70.00;;;14.87;;
2838;SDS011;1427;48.510;9.060;2024-01-11T13:27:01;78.70;;;17.07;;
2838;SDS011;1427;48.510;9.060;2024-01-11T13:29:29;80.87;;;15.50;;
2838;SDS011;1427;48.510;9.060;2024-01-11T13:31:57;74.70;;;17.50;;
2838;SDS011;1427;48.510;9.060;2024-01-11T13:34:31;72.53;;;15.13;;
2838;SDS011;1427;48.510;9.060;2024-01-11T13:37:00;73.57;;;17.07;;
2838;SDS011;1427;48.510;9.060;2024-01-11T13:39:29;83.23;;;17.80;;
2838;SDS011;1427;48.510;9.060;2024-01-11T13:41:57;65.80;;;13.27;;
2838;SDS011;1427;48.510;9.060;2024-01-11T13:44:25;81.47;;;15.33;;
2838;SDS011;1427;48.510;9.060;2024-01-11T13:46:53;92.60;;;16.83;;
2838;SDS011;1427;48.510;9.060;2024-01-11T13:49:21;90.90;;;16.30;;
2838;SDS011;1427;48.510;9.060;2024-01-11T13:51:53;85.27;;;16.50;;
2838;SDS011;1427;48.510;9.060;2024-01-11T13:54:27;80.83;;;18.53;;
2838;SDS011;1427;48.510;9.060;2024-01-11T13:56:55;74.80;;;14.43;;
2838;SDS011;1427;48.510;9.060;2024-01-11T13:59:23;68.37;;;12.77;;
2838;SDS011;1427;48.510;9.060;2024-01-11T14:01:51;66.27;;;13.00;;
2838;SDS011;1427;48.510;9.060;2024-01-11T14:04:19;72.87;;;14.10;;
2838;SDS011;1427;48.510;9.060;2024-01-11T14:06:49;65.77;;;11.80;;
2838;SDS011;1427;48.510;9.060;2024-01-11T14:09:20;78.20;;;13.80;;
2838;SDS011;1427;48.510;9.060;2024-01-11T14:11:49;68.13;;;14.27;;
2838;SDS011;1427;48.510;9.060;2024-01-11T14:14:17;66.37;;;12.77;;
2838;SDS011;1427;48.510;9.060;2024-01-11T14:16:47;74.13;;;14.60;;
2838;SDS011;1427;48.510;9.060;2024-01-11T14:19:15;71.60;;;13.50;;
2838;SDS011;1427;48.510;9.060;2024-01-11T14:21:43;65.27;;;12.50;;
2838;SDS011;1427;48.510;9.060;2024-01-11T14:24:11;74.00;;;14.00;;
2838;SDS011;1427;48.510;9.060;2024-01-11T14:26:41;66.73;;;12.67;;
2838;SDS011;1427;48.510;9.060;2024-01-11T14:29:09;79.90;;;14.00;;
2838;SDS011;1427;48.510;9.060;2024-01-11T14:31:38;60.80;;;10.77;;
2838;SDS011;1427;48.510;9.060;2024-01-11T14:34:06;67.97;;;11.37;;
2838;SDS011;1427;48.510;9.060;2024-01-11T14:36:34;56.43;;;10.60;;
2838;SDS011;1427;48.510;9.060;2024-01-11T14:39:02;62.30;;;11.60;;
2838;SDS011;1427;48.510;9.060;2024-01-11T14:41:31;48.90;;;6.60;;
2838;SDS011;1427;48.510;9.060;2024-01-11T14:44:01;49.47;;;6.30;;
2838;SDS011;1427;48.510;9.060;2024-01-11T14:46:29;70.97;;;5.87;;
2838;SDS011;1427;48.510;9.060;2024-01-11T14:48:57;47.00;;;5.33;;
2838;SDS011;1427;48.510;9.060;2024-01-11T14:51:26;47.70;;;6.67;;
2838;SDS011;1427;48.510;9.060;2024-01-11T14:53:57;46.73;;;5.50;;
2838;SDS011;1427;48.510;9.060;2024-01-11T14:56:25;48.93;;;6.40;;
2838;SDS011;1427;48.510;9.060;2024-01-11T14:58:53;52.73;;;9.40;;
2838;SDS011;1427;48.510;9.060;2024-01-11T15:01:22;47.00;;;5.23;;
2838;SDS011;1427;48.510;9.060;2024-01-11T15:03:51;46.57;;;4.50;;
2838;SDS011;1427;48.510;9.060;2024-01-11T15:06:19;58.23;;;6.23;;
2838;SDS011;1427;48.510;9.060;2024-01-11T15:08:47;47.50;;;5.60;;